This is the latest recevied weather packets stored in our database for station/object SQ8NA-15. If no packets are shown the sender has not sent any weather packets the latest 10 day(s).
| Time | Temp. | Humidity | Pressure | Rain* | Wind** | Luminosity | Snow |
|---|---|---|---|---|---|---|---|
| 1787581276 | 21.11° C | 47% | 983.6 hPa | 0 mm | - | 450 W/m² | - |
| 1787580664 | 21.67° C | 47% | 983.5 hPa | 0 mm | - | 378 W/m² | - |
| 1787580050 | 21.11° C | 49% | 983.6 hPa | 0 mm | - | 415 W/m² | - |
| 1787578838 | 21.67° C | 47% | 983.7 hPa | 0 mm | - | 469 W/m² | - |
| 1787578238 | 20.56° C | 48% | 983.7 hPa | 0 mm | - | 511 W/m² | - |
| 1787577637 | 21.11° C | 50% | 983.7 hPa | 0 mm | - | 521 W/m² | - |
| 1787576401 | 21.67° C | 50% | 983.6 hPa | 0 mm | - | 559 W/m² | - |
| 1787575801 | 21.11° C | 47% | 983.7 hPa | 0 mm | - | 589 W/m² | - |
| 1787575187 | 21.67° C | 48% | 983.6 hPa | 0 mm | - | 602 W/m² | - |
| 1787573964 | 21.67° C | 48% | 983.8 hPa | 0 mm | - | 653 W/m² | - |
| 1787573362 | 21.11° C | 48% | 983.8 hPa | 0 mm | - | 309 W/m² | - |
| 1787572752 | 21.11° C | 48% | 983.8 hPa | 0 mm | - | 709 W/m² | - |
| 1787572136 | 20.56° C | 48% | 984 hPa | 0 mm | - | 320 W/m² | - |
| 1787571527 | 21.67° C | 44% | 984 hPa | 0 mm | - | 326 W/m² | - |
| 1787570301 | 21.11° C | 49% | 984 hPa | 0 mm | - | 471 W/m² | - |
| 1787569676 | 20° C | 53% | 984 hPa | 0 mm | - | 604 W/m² | - |
| 1787569062 | 20.56° C | 50% | 984 hPa | 0 mm | - | 156 W/m² | - |
| 1787567851 | 20° C | 53% | 984 hPa | 0 mm | - | 692 W/m² | - |
| 1787567249 | 20° C | 54% | 984 hPa | 0 mm | - | 196 W/m² | - |
| 1787566639 | 20° C | 54% | 984.1 hPa | 0 mm | - | 230 W/m² | - |
| 1787565413 | 20° C | 52% | 984.1 hPa | 0 mm | - | 122 W/m² | - |
| 1787564813 | 20° C | 51% | 984.2 hPa | 0 mm | - | 186 W/m² | - |
| 1787564200 | 20° C | 53% | 984.2 hPa | 0 mm | - | 237 W/m² | - |
| 1787562349 | 20.56° C | 50% | 984.4 hPa | 0 mm | - | 649 W/m² | - |
| 1787561738 | 20.56° C | 50% | 984.4 hPa | 0 mm | - | 615 W/m² | - |
* Rain latest hour (hover to see other rain measurements)
** Current wind speed in m/s (hover to see current wind gust speed)